Time;durP1;ratioP1;P1;durP2;ratioP2;P2;SDS_P1;SDS_P2;PMS_P1;PMS_P2;Temp;Humidity;BMP_temperature;BMP_pressure;BME280_temperature;BME280_humidity;BME280_pressure;Samples;Min_cycle;Max_cycle;Signal;HPM_P1;HPM_P2
2022/03/09 00:00:50;;;;;;;31.23;12.35;;;;;;;1.30;69.28;101036.11;1930614;74;21113;-57
2022/03/09 00:03:19;;;;;;;26.48;11.20;;;;;;;1.30;69.16;101041.30;1930680;74;21197;-57
2022/03/09 00:05:48;;;;;;;26.62;10.43;;;;;;;1.30;69.21;101045.19;1930558;74;21071;-60
2022/03/09 00:08:17;;;;;;;30.20;11.95;;;;;;;1.29;69.27;101043.44;1913255;74;21689;-57
2022/03/09 00:10:47;;;;;;;26.62;11.85;;;;;;;1.28;69.50;101037.84;1897287;76;21119;-56
2022/03/09 00:13:16;;;;;;;29.95;12.05;;;;;;;1.25;69.73;101034.78;1891921;76;21030;-58
2022/03/09 00:15:45;;;;;;;25.08;11.00;;;;;;;1.28;69.76;101037.84;1893270;76;21598;-59
2022/03/09 00:18:13;;;;;;;23.27;10.65;;;;;;;1.28;69.64;101039.13;1900305;74;21125;-57
2022/03/09 00:20:42;;;;;;;24.65;10.50;;;;;;;1.29;69.53;101029.17;1880047;76;21090;-58
2022/03/09 00:23:11;;;;;;;19.67;9.75;;;;;;;1.28;69.44;101025.72;1897152;74;21051;-58
2022/03/09 00:25:40;;;;;;;25.57;10.50;;;;;;;1.26;69.33;101023.56;1875353;76;21070;-61
2022/03/09 00:28:08;;;;;;;28.70;11.15;;;;;;;1.25;69.28;101020.95;1849320;77;21180;-59
2022/03/09 00:30:37;;;;;;;25.30;9.85;;;;;;;1.24;69.24;101025.72;1883549;76;21192;-58
2022/03/09 00:33:06;;;;;;;24.37;10.45;;;;;;;1.23;69.21;101027.86;1914777;74;21034;-57
2022/03/09 00:35:34;;;;;;;25.60;9.63;;;;;;;1.20;69.22;101023.95;1885635;76;21106;-57
2022/03/09 00:38:03;;;;;;;23.67;10.13;;;;;;;1.20;69.21;101023.55;1885935;76;21042;-57
2022/03/09 00:40:32;;;;;;;27.13;10.03;;;;;;;1.21;69.23;101026.56;1889598;74;21547;-58
2022/03/09 00:43:01;;;;;;;29.30;11.28;;;;;;;1.18;69.45;101021.38;1925191;74;21046;-58
2022/03/09 00:45:30;;;;;;;25.40;10.58;;;;;;;1.17;69.58;101018.77;1925085;74;21178;-58
2022/03/09 00:47:59;;;;;;;27.50;11.95;;;;;;;1.17;69.62;101015.73;1925213;74;21081;-59
2022/03/09 00:50:28;;;;;;;39.48;17.20;;;;;;;1.21;69.58;101011.43;1908347;74;21014;-60
2022/03/09 00:52:57;;;;;;;32.40;14.00;;;;;;;1.21;69.49;101010.13;1896043;75;21259;-58
2022/03/09 00:55:26;;;;;;;29.50;13.80;;;;;;;1.20;69.56;101013.17;1859344;76;21503;-59
2022/03/09 00:57:55;;;;;;;31.37;12.25;;;;;;;1.19;69.53;101015.31;1914162;75;21444;-60
2022/03/09 01:00:24;;;;;;;26.80;11.22;;;;;;;1.12;69.63;101018.30;1858610;76;21057;-63
2022/03/09 01:02:53;;;;;;;33.80;14.15;;;;;;;1.07;69.86;101016.14;1910832;75;21258;-60
2022/03/09 01:05:22;;;;;;;40.50;13.43;;;;;;;1.06;70.04;101010.50;1857844;76;21494;-59
2022/03/09 01:07:51;;;;;;;33.63;14.65;;;;;;;1.04;70.12;101011.37;1901829;75;21035;-58
2022/03/09 01:10:20;;;;;;;42.67;15.70;;;;;;;1.03;70.14;101007.88;1872778;76;21167;-59
2022/03/09 01:12:49;;;;;;;34.80;15.03;;;;;;;1.02;70.24;101008.77;1908876;75;21483;-60
2022/03/09 01:15:18;;;;;;;29.52;14.00;;;;;;;1.04;70.33;101007.04;1862245;76;21474;-58
2022/03/09 01:17:47;;;;;;;29.98;13.43;;;;;;;1.09;70.29;101002.75;1897872;75;21726;-61
2022/03/09 01:20:16;;;;;;;32.15;12.80;;;;;;;1.14;70.30;101002.34;1850788;76;21526;-59
2022/03/09 01:22:44;;;;;;;31.48;14.23;;;;;;;1.18;70.37;101002.33;1899706;75;21077;-60
2022/03/09 01:25:13;;;;;;;31.85;13.83;;;;;;;1.23;70.28;100996.73;1878285;76;21164;-58
2022/03/09 01:27:42;;;;;;;29.42;11.35;;;;;;;1.28;70.24;101004.11;1905102;74;21022;-59
2022/03/09 01:30:11;;;;;;;27.98;12.18;;;;;;;1.30;70.27;101004.98;1911764;74;21116;-58
2022/03/09 01:32:40;;;;;;;29.30;12.18;;;;;;;1.32;70.16;100996.77;1881021;75;21552;-58
2022/03/09 01:35:09;;;;;;;28.80;11.85;;;;;;;1.35;70.22;100994.19;1891265;75;21030;-60
2022/03/09 01:37:38;;;;;;;29.55;13.25;;;;;;;1.37;70.32;100997.66;1914582;73;21030;-59
2022/03/09 01:40:08;;;;;;;27.75;12.50;;;;;;;1.38;70.32;100988.98;1913926;74;21056;-59
2022/03/09 01:42:37;;;;;;;30.50;13.15;;;;;;;1.40;70.22;100995.05;1931059;74;21006;-62
2022/03/09 01:45:09;;;;;;;30.30;12.63;;;;;;;1.40;70.26;100997.64;1931069;74;21096;-61
2022/03/09 01:47:38;;;;;;;25.17;11.25;;;;;;;1.40;70.48;100997.64;1930959;74;21461;-61
2022/03/09 01:50:13;;;;;;;27.02;12.78;;;;;;;1.38;70.57;100994.17;1931446;73;21536;-63
2022/03/09 01:52:40;;;;;;;26.25;11.43;;;;;;;1.32;70.66;100996.77;1935692;74;21065;-61
2022/03/09 01:55:10;;;;;;;27.52;11.93;;;;;;;1.33;70.53;100998.52;1937178;74;21061;-61
2022/03/09 01:57:40;;;;;;;26.10;10.98;;;;;;;1.36;70.32;101002.39;1944939;73;21011;-62
2022/03/09 02:00:10;;;;;;;24.10;11.33;;;;;;;1.36;70.27;100997.20;1959529;73;21004;-63
2022/03/09 02:02:39;;;;;;;24.40;9.98;;;;;;;1.34;70.36;100993.74;1959556;73;21102;-63
2022/03/09 02:05:09;;;;;;;26.48;11.75;;;;;;;1.33;70.31;100998.08;1959462;73;21055;-62
2022/03/09 02:10:28;;;;;;;25.30;10.45;;;;;;;1.29;70.26;101005.83;1929617;74;21510;-60
2022/03/09 02:12:57;;;;;;;27.20;9.95;;;;;;;1.30;70.33;101007.58;1929589;74;21106;-61
2022/03/09 02:15:26;;;;;;;24.90;9.95;;;;;;;1.31;70.32;101007.98;1929667;74;21036;-61
2022/03/09 02:17:55;;;;;;;24.60;9.83;;;;;;;1.34;70.29;101007.57;1929657;74;21121;-59
2022/03/09 02:20:23;;;;;;;23.30;10.60;;;;;;;1.37;70.18;101008.03;1958490;73;21101;-58
2022/03/09 02:22:58;;;;;;;21.85;9.93;;;;;;;1.36;70.10;101010.17;1959730;73;21126;-57
2022/03/09 02:25:23;;;;;;;24.00;10.10;;;;;;;1.37;70.07;101009.33;1958039;73;21515;-59
2022/03/09 02:27:52;;;;;;;21.42;9.23;;;;;;;1.37;70.07;101010.63;1959483;73;21048;-58
2022/03/09 02:30:21;;;;;;;22.27;10.28;;;;;;;1.38;70.15;101013.64;1902270;73;21132;-59
2022/03/09 02:32:50;;;;;;;21.33;9.28;;;;;;;1.40;70.26;101010.61;1920984;75;21054;-59
2022/03/09 02:35:20;;;;;;;21.55;9.73;;;;;;;1.41;70.31;101003.72;1836511;78;21541;-59
2022/03/09 02:37:49;;;;;;;21.27;10.90;;;;;;;1.44;70.34;101008.89;1836609;77;21015;-59
2022/03/09 02:40:18;;;;;;;24.63;11.18;;;;;;;1.45;70.35;101001.12;1883957;76;21028;-59
2022/03/09 02:42:47;;;;;;;24.37;10.25;;;;;;;1.47;70.38;101010.22;1895944;76;21529;-59
2022/03/09 02:45:16;;;;;;;24.35;11.88;;;;;;;1.49;70.35;101008.48;1895767;76;21118;-59
2022/03/09 02:47:45;;;;;;;27.55;11.45;;;;;;;1.49;70.37;101008.05;1895703;76;21063;-60
2022/03/09 02:50:16;;;;;;;25.37;11.20;;;;;;;1.51;70.31;101011.54;1893883;76;21028;-58
2022/03/09 02:52:45;;;;;;;22.82;9.73;;;;;;;1.52;70.26;101012.39;1895651;76;21107;-59
2022/03/09 02:55:14;;;;;;;21.00;9.53;;;;;;;1.52;70.17;101013.25;1895679;76;21471;-59
2022/03/09 02:57:44;;;;;;;21.65;10.23;;;;;;;1.53;70.15;101012.41;1895791;76;21092;-60
2022/03/09 03:00:13;;;;;;;20.45;9.63;;;;;;;1.53;70.19;101007.22;1894813;76;21473;-60
2022/03/09 03:02:42;;;;;;;21.37;10.10;;;;;;;1.53;70.28;101002.02;1895802;76;21043;-59
2022/03/09 03:05:11;;;;;;;24.57;9.28;;;;;;;1.53;70.33;101003.32;1895725;76;21094;-60
2022/03/09 03:07:40;;;;;;;19.90;9.33;;;;;;;1.56;70.29;101004.19;1895678;76;21133;-60
2022/03/09 03:10:09;;;;;;;26.05;9.40;;;;;;;1.56;70.27;100999.00;1895912;76;21055;-60
2022/03/09 03:12:38;;;;;;;24.32;9.58;;;;;;;1.56;70.34;100995.10;1893842;76;21038;-60
2022/03/09 03:15:07;;;;;;;23.10;9.48;;;;;;;1.56;70.42;100989.47;1895685;76;21047;-60
2022/03/09 03:17:36;;;;;;;27.85;11.53;;;;;;;1.53;70.36;100990.34;1895780;76;21043;-60
2022/03/09 03:20:06;;;;;;;24.98;10.82;;;;;;;1.51;70.30;100988.18;1895831;76;21051;-60
2022/03/09 03:22:35;;;;;;;21.07;10.00;;;;;;;1.42;70.41;100980.38;1893919;76;21036;-60
2022/03/09 03:25:05;;;;;;;26.37;9.88;;;;;;;1.38;70.53;100987.69;1895833;76;21040;-60
2022/03/09 03:27:33;;;;;;;25.50;10.32;;;;;;;1.37;70.54;100988.58;1895923;76;21032;-60
2022/03/09 03:30:02;;;;;;;21.65;10.58;;;;;;;1.37;70.51;100985.13;1912697;74;21559;-60
2022/03/09 03:32:31;;;;;;;29.23;11.50;;;;;;;1.37;70.52;100982.52;1934383;74;21074;-60
2022/03/09 03:35:00;;;;;;;24.30;10.45;;;;;;;1.39;70.62;100983.39;1937154;74;21055;-60
2022/03/09 03:37:28;;;;;;;25.82;10.72;;;;;;;1.36;70.77;100977.74;1937194;74;21055;-61
2022/03/09 03:39:57;;;;;;;22.02;10.23;;;;;;;1.38;70.67;100985.09;1937241;74;21070;-60
2022/03/09 03:42:26;;;;;;;32.20;11.20;;;;;;;1.39;70.59;100985.98;1936787;74;21114;-61
2022/03/09 03:44:55;;;;;;;27.32;12.00;;;;;;;1.40;70.57;100986.41;1937158;74;21465;-60
2022/03/09 03:47:24;;;;;;;22.27;10.38;;;;;;;1.33;70.72;100981.20;1937230;74;21059;-60
2022/03/09 03:49:53;;;;;;;31.90;11.48;;;;;;;1.28;70.85;100981.62;1937175;74;21113;-60
2022/03/09 03:52:21;;;;;;;33.95;11.50;;;;;;;1.24;71.02;100986.37;1937168;74;21094;-61
2022/03/09 03:54:50;;;;;;;25.05;10.38;;;;;;;1.22;71.36;100983.31;1934271;74;21055;-60
2022/03/09 03:57:18;;;;;;;31.40;11.80;;;;;;;1.25;71.43;100980.74;1937115;74;21196;-60
2022/03/09 03:59:47;;;;;;;25.52;10.93;;;;;;;1.26;71.40;100985.94;1937171;74;21043;-60
2022/03/09 04:02:16;;;;;;;30.27;11.38;;;;;;;1.28;71.44;100980.77;1937281;74;21517;-60
2022/03/09 04:04:45;;;;;;;27.25;11.03;;;;;;;1.31;71.28;100976.86;1936836;74;21560;-60
2022/03/09 04:07:14;;;;;;;29.60;11.40;;;;;;;1.34;70.98;100978.17;1937425;74;21104;-60
2022/03/09 04:09:43;;;;;;;24.32;11.20;;;;;;;1.37;70.83;100976.04;1937049;74;21051;-60
2022/03/09 04:12:12;;;;;;;29.72;11.12;;;;;;;1.39;70.78;100979.06;1906223;74;21084;-61
2022/03/09 04:14:40;;;;;;;26.23;10.70;;;;;;;1.41;70.85;100981.66;1897308;76;21054;-61
2022/03/09 04:17:10;;;;;;;24.15;11.57;;;;;;;1.39;71.08;100980.36;1897352;76;21077;-60
2022/03/09 04:19:39;;;;;;;27.45;11.75;;;;;;;1.37;71.23;100979.48;1897322;76;21155;-60
2022/03/09 04:22:08;;;;;;;33.75;12.70;;;;;;;1.35;71.35;100979.92;1899940;74;21108;-63
2022/03/09 04:24:37;;;;;;;23.92;10.85;;;;;;;1.33;71.54;100982.95;1897306;75;21489;-61
2022/03/09 04:27:06;;;;;;;27.05;11.93;;;;;;;1.39;71.54;100982.09;1897281;75;21048;-59
2022/03/09 04:29:35;;;;;;;28.42;11.60;;;;;;;1.45;71.41;100980.80;1897494;76;21477;-60
2022/03/09 04:32:04;;;;;;;25.60;12.45;;;;;;;1.52;71.27;100976.92;1881463;76;21145;-60
2022/03/09 04:34:33;;;;;;;34.70;12.85;;;;;;;1.59;71.19;100976.95;1891035;76;21138;-62
2022/03/09 04:37:01;;;;;;;28.30;11.65;;;;;;;1.64;71.24;100975.20;1869293;77;21094;-61
2022/03/09 04:39:30;;;;;;;33.48;12.35;;;;;;;1.66;71.23;100982.56;1869324;77;21097;-60
2022/03/09 04:41:59;;;;;;;27.50;11.55;;;;;;;1.65;71.38;100988.63;1878651;76;21537;-61
2022/03/09 04:44:27;;;;;;;26.97;12.13;;;;;;;1.68;71.35;100986.05;1895692;76;21109;-61
2022/03/09 04:46:56;;;;;;;37.40;11.57;;;;;;;1.71;71.23;100988.19;1895754;76;21047;-61
2022/03/09 04:49:25;;;;;;;28.20;11.90;;;;;;;1.72;71.26;100991.67;1895650;76;21145;-61
2022/03/09 04:51:53;;;;;;;34.75;11.65;;;;;;;1.79;71.17;100990.82;1892305;76;21004;-60
2022/03/09 04:54:22;;;;;;;24.07;11.25;;;;;;;1.86;70.98;100986.07;1820079;79;21117;-61
2022/03/09 04:56:51;;;;;;;32.00;11.80;;;;;;;1.90;70.96;100983.02;1823809;78;21518;-60
2022/03/09 04:59:20;;;;;;;25.82;12.50;;;;;;;1.95;70.99;100997.31;1841059;78;21077;-60
2022/03/09 05:01:48;;;;;;;26.17;13.30;;;;;;;2.01;70.94;100999.49;1841043;78;21054;-61
2022/03/09 05:04:17;;;;;;;30.88;12.95;;;;;;;2.02;70.99;101000.34;1841024;78;21013;-62
2022/03/09 05:06:46;;;;;;;30.45;12.15;;;;;;;2.05;71.10;101005.56;1836428;78;21132;-63
2022/03/09 05:09:15;;;;;;;32.63;12.58;;;;;;;2.07;71.07;101005.98;1809353;79;21527;-61
2022/03/09 05:11:44;;;;;;;25.85;12.40;;;;;;;2.11;70.94;101009.00;1809282;79;21543;-63
2022/03/09 05:14:12;;;;;;;28.80;12.28;;;;;;;2.20;70.72;101004.25;1809108;79;21145;-60
2022/03/09 05:16:41;;;;;;;30.62;13.25;;;;;;;2.24;70.53;101005.11;1809230;79;21065;-62
2022/03/09 05:19:10;;;;;;;27.45;11.90;;;;;;;2.24;70.64;101012.47;1817654;78;21060;-60
2022/03/09 05:21:38;;;;;;;34.53;11.60;;;;;;;2.25;70.66;101012.91;1895758;76;21063;-60
2022/03/09 05:24:07;;;;;;;24.75;11.88;;;;;;;2.29;70.56;101013.33;1895757;76;21048;-60
2022/03/09 05:26:36;;;;;;;29.07;12.53;;;;;;;2.34;70.25;101011.16;1895702;76;21045;-61
2022/03/09 05:29:06;;;;;;;33.73;11.60;;;;;;;2.39;70.01;101006.83;1893752;76;21514;-61
2022/03/09 05:31:35;;;;;;;31.30;11.73;;;;;;;2.42;69.99;101015.94;1914676;74;21071;-62
2022/03/09 05:34:04;;;;;;;26.75;12.05;;;;;;;2.47;69.85;101005.96;1936226;74;21012;-59
2022/03/09 05:36:34;;;;;;;31.45;13.60;;;;;;;2.50;69.70;101003.78;1856975;77;21048;-59
2022/03/09 05:39:02;;;;;;;32.73;12.73;;;;;;;2.53;69.58;101013.30;1928097;73;21183;-59
2022/03/09 05:41:33;;;;;;;32.03;13.28;;;;;;;2.51;69.64;101013.32;1931546;74;21131;-60
2022/03/09 05:44:02;;;;;;;33.50;13.50;;;;;;;2.46;69.70;101022.41;1931597;74;21010;-60
2022/03/09 05:46:31;;;;;;;33.48;13.22;;;;;;;2.49;69.60;101017.63;1931622;74;21539;-60
2022/03/09 05:49:01;;;;;;;33.45;14.87;;;;;;;2.50;69.50;101015.03;1933373;73;21508;-60
2022/03/09 05:51:31;;;;;;;24.75;12.05;;;;;;;2.54;69.47;101022.84;1924543;74;21035;-60
2022/03/09 05:54:00;;;;;;;25.23;11.40;;;;;;;2.51;69.53;101019.38;1924431;74;21490;-60
2022/03/09 05:56:29;;;;;;;27.02;10.93;;;;;;;2.49;69.59;101034.52;1924479;74;21098;-60
2022/03/09 05:58:58;;;;;;;24.60;10.65;;;;;;;2.52;69.49;101029.33;1924565;74;21121;-61
2022/03/09 06:01:26;;;;;;;19.05;9.78;;;;;;;2.55;69.29;101034.54;1931907;73;21041;-61
2022/03/09 06:03:55;;;;;;;22.58;8.05;;;;;;;2.55;69.21;101039.73;1931609;74;20994;-60
2022/03/09 06:06:24;;;;;;;19.10;8.03;;;;;;;2.57;69.12;101038.44;1931515;74;21131;-61
2022/03/09 06:08:53;;;;;;;22.07;9.10;;;;;;;2.59;68.97;101028.46;1931587;74;21551;-60
2022/03/09 06:11:22;;;;;;;23.15;9.55;;;;;;;2.63;68.78;101028.88;1958345;73;21119;-60
2022/03/09 06:13:51;;;;;;;21.20;9.43;;;;;;;2.68;68.54;101032.78;1969535;73;21129;-61
2022/03/09 06:16:20;;;;;;;25.35;9.88;;;;;;;2.73;68.38;101032.77;1969488;73;21540;-60
2022/03/09 06:18:49;;;;;;;21.10;9.75;;;;;;;2.71;68.37;101031.46;1969518;73;21039;-62
2022/03/09 06:21:17;;;;;;;20.05;9.43;;;;;;;2.72;68.38;101038.84;1969543;73;21441;-60
2022/03/09 06:23:46;;;;;;;19.90;8.83;;;;;;;2.73;68.29;101037.96;1969458;73;21031;-60
2022/03/09 06:26:14;;;;;;;20.88;8.38;;;;;;;2.69;68.16;101037.99;1966758;73;21032;-60
2022/03/09 06:28:43;;;;;;;22.20;8.88;;;;;;;2.56;68.08;101040.59;1969507;73;21094;-61
2022/03/09 06:31:12;;;;;;;19.32;9.10;;;;;;;2.51;68.27;101036.72;1969479;73;21004;-62
2022/03/09 06:33:41;;;;;;;22.77;9.78;;;;;;;2.55;68.25;101041.04;1969459;73;21098;-61
2022/03/09 06:36:09;;;;;;;15.98;8.68;;;;;;;2.58;68.03;101039.71;1951801;73;21047;-61
2022/03/09 06:38:38;;;;;;;18.37;8.45;;;;;;;2.64;68.05;101026.72;1931627;74;21046;-60
2022/03/09 06:41:07;;;;;;;20.55;7.92;;;;;;;2.61;67.96;101031.92;1931561;74;21140;-63
2022/03/09 06:43:35;;;;;;;21.07;7.75;;;;;;;2.65;67.94;101026.28;1931630;74;21132;-64
2022/03/09 06:46:04;;;;;;;19.02;8.38;;;;;;;2.74;67.66;101015.00;1933988;73;21437;-63
2022/03/09 06:48:33;;;;;;;14.07;7.03;;;;;;;2.80;67.50;101012.38;1934321;73;21077;-61
2022/03/09 06:51:02;;;;;;;17.57;7.30;;;;;;;2.87;67.22;101014.09;1931719;74;21034;-62
2022/03/09 06:53:30;;;;;;;13.43;6.50;;;;;;;2.92;66.99;101012.35;1931691;74;21468;-60
2022/03/09 06:55:59;;;;;;;18.20;7.58;;;;;;;2.98;66.84;101007.12;1931880;74;21112;-62
2022/03/09 06:58:28;;;;;;;15.05;7.12;;;;;;;3.02;66.67;101008.83;1931140;74;21042;-63
2022/03/09 07:00:57;;;;;;;17.05;6.83;;;;;;;3.08;66.50;101004.92;1931918;74;21453;-62
2022/03/09 07:03:28;;;;;;;15.18;7.17;;;;;;;3.07;66.29;100999.28;1931699;74;21054;-61
2022/03/09 07:05:57;;;;;;;21.05;8.78;;;;;;;3.12;66.21;100999.28;1931807;74;21120;-62
2022/03/09 07:08:26;;;;;;;22.22;9.53;;;;;;;3.16;66.11;100996.23;1934216;73;21112;-60
2022/03/09 07:10:54;;;;;;;15.98;7.78;;;;;;;3.26;65.94;101000.50;1931571;74;21062;-61
2022/03/09 07:13:23;;;;;;;22.82;9.30;;;;;;;3.32;65.64;101004.39;1931676;74;21132;-61
2022/03/09 07:15:52;;;;;;;19.95;9.55;;;;;;;3.42;65.51;100998.25;1931649;74;21164;-60
2022/03/09 07:18:21;;;;;;;15.72;7.10;;;;;;;3.61;65.28;100998.14;1931041;73;21000;-59
2022/03/09 07:20:49;;;;;;;18.98;8.23;;;;;;;3.85;65.11;100992.79;1924612;74;21125;-59
2022/03/09 07:23:18;;;;;;;20.00;7.08;;;;;;;4.06;64.68;100993.50;1924606;74;21118;-61
2022/03/09 07:25:47;;;;;;;21.50;7.28;;;;;;;4.27;64.19;100994.19;1924662;74;21039;-60
2022/03/09 07:28:15;;;;;;;21.10;6.80;;;;;;;4.57;63.76;100991.27;1924803;74;21121;-60
2022/03/09 07:30:44;;;;;;;12.58;6.05;;;;;;;4.97;63.12;100984.31;1924565;74;21083;-60
2022/03/09 07:33:12;;;;;;;10.63;4.75;;;;;;;5.46;61.94;100976.72;1929012;73;21073;-60
2022/03/09 07:35:41;;;;;;;12.65;6.55;;;;;;;6.26;61.02;100971.59;1931049;74;21070;-60
2022/03/09 07:38:10;;;;;;;14.23;6.20;;;;;;;7.50;58.26;100964.30;1930888;73;21535;-61
2022/03/09 07:40:39;;;;;;;14.60;6.05;;;;;;;8.53;56.69;100964.87;1930803;74;21452;-61
2022/03/09 07:43:09;;;;;;;14.93;5.85;;;;;;;9.66;55.35;100965.50;1901247;75;21096;-61
2022/03/09 07:45:39;;;;;;;14.13;6.47;;;;;;;10.35;53.49;100955.80;1908235;75;21075;-59
2022/03/09 07:48:09;;;;;;;16.80;7.05;;;;;;;10.53;53.33;100950.78;1908015;75;21582;-61
2022/03/09 07:50:37;;;;;;;18.85;6.60;;;;;;;11.48;51.39;100948.55;1896708;75;20995;-57
2022/03/09 07:53:08;;;;;;;15.48;7.33;;;;;;;12.21;49.86;100950.47;1866065;75;21069;-63
2022/03/09 07:55:36;;;;;;;10.70;6.50;;;;;;;12.39;49.46;100947.94;1888925;76;21067;-63
2022/03/09 07:58:05;;;;;;;9.53;5.83;;;;;;;11.69;49.82;100942.02;1919098;75;21054;-62
2022/03/09 08:00:33;;;;;;;11.08;6.33;;;;;;;10.85;48.74;100946.16;1909703;75;21081;-60
2022/03/09 08:03:02;;;;;;;13.93;7.45;;;;;;;10.33;49.28;100947.09;1907425;75;21014;-60
2022/03/09 08:05:31;;;;;;;12.37;7.25;;;;;;;9.74;49.16;100947.27;1878664;76;21107;-61
2022/03/09 08:08:00;;;;;;;13.08;6.70;;;;;;;9.44;49.72;100946.02;1921377;75;21057;-61
2022/03/09 08:10:28;;;;;;;10.03;5.35;;;;;;;9.14;49.71;100942.11;1921465;75;21037;-61
2022/03/09 08:12:58;;;;;;;12.15;6.28;;;;;;;8.81;50.13;100941.33;1910950;75;21079;-61
2022/03/09 08:15:26;;;;;;;12.35;6.80;;;;;;;8.37;50.26;100940.75;1889009;75;21107;-62
2022/03/09 08:17:55;;;;;;;13.48;6.20;;;;;;;8.04;50.63;100934.17;1878900;76;21084;-62
2022/03/09 08:20:25;;;;;;;12.88;7.20;;;;;;;7.86;51.32;100934.20;1876049;76;21084;-61
2022/03/09 08:22:53;;;;;;;10.50;5.87;;;;;;;7.68;51.70;100932.88;1883761;74;21105;-60
2022/03/09 08:25:22;;;;;;;15.05;6.37;;;;;;;7.54;51.65;100931.45;1896141;74;21083;-60
2022/03/09 08:27:51;;;;;;;11.73;5.90;;;;;;;7.20;51.67;100933.97;1904373;75;21149;-61
2022/03/09 08:30:20;;;;;;;12.82;6.90;;;;;;;6.97;52.02;100935.75;1876172;76;21053;-62
2022/03/09 08:32:48;;;;;;;13.48;6.25;;;;;;;6.92;52.45;100937.17;1876068;76;21088;-61
2022/03/09 08:35:17;;;;;;;11.25;5.70;;;;;;;6.98;52.41;100930.95;1876111;76;21017;-61
2022/03/09 08:37:46;;;;;;;8.30;5.12;;;;;;;7.06;52.07;100937.33;1878089;75;21542;-61
2022/03/09 08:40:15;;;;;;;13.28;6.20;;;;;;;7.30;52.02;100935.50;1898462;75;21125;-62
2022/03/09 08:42:43;;;;;;;11.33;5.33;;;;;;;7.25;51.55;100933.42;1900445;73;21110;-62
2022/03/09 08:45:12;;;;;;;10.78;6.37;;;;;;;7.19;51.22;100935.30;1906091;75;21022;-63
2022/03/09 08:47:41;;;;;;;10.88;5.67;;;;;;;7.37;51.35;100929.66;1908267;75;21444;-61
2022/03/09 08:50:10;;;;;;;9.95;5.80;;;;;;;7.59;51.05;100930.02;1911872;75;21014;-61
2022/03/09 08:52:39;;;;;;;12.60;6.03;;;;;;;8.05;50.01;100931.52;1920091;75;21057;-62
2022/03/09 08:55:09;;;;;;;9.90;5.33;;;;;;;8.31;49.75;100926.04;1920125;75;20998;-61
2022/03/09 08:57:37;;;;;;;11.95;5.90;;;;;;;8.34;50.08;100928.59;1920123;75;21089;-61
2022/03/09 09:00:07;;;;;;;12.35;6.03;;;;;;;8.37;49.83;100929.80;1918366;75;21191;-62
2022/03/09 09:02:36;;;;;;;11.75;5.65;;;;;;;8.48;49.72;100930.44;1896504;75;21020;-61
2022/03/09 09:05:06;;;;;;;13.90;6.85;;;;;;;8.59;49.17;100927.48;1897105;76;21039;-61
2022/03/09 09:07:34;;;;;;;8.40;4.75;;;;;;;8.70;49.32;100921.94;1885632;75;21066;-63
2022/03/09 09:10:04;;;;;;;7.67;4.72;;;;;;;9.39;48.38;100922.99;1898541;75;21067;-63
2022/03/09 09:12:33;;;;;;;10.30;5.75;;;;;;;9.47;47.84;100923.13;1898692;75;21003;-62
2022/03/09 09:15:02;;;;;;;8.15;5.25;;;;;;;8.98;47.49;100920.71;1898545;75;21112;-61
2022/03/09 09:17:31;;;;;;;10.63;5.67;;;;;;;8.45;48.05;100925.26;1898068;75;21506;-62
2022/03/09 09:19:59;;;;;;;9.95;5.80;;;;;;;8.00;48.53;100918.96;1890217;75;21030;-61
2022/03/09 09:22:28;;;;;;;10.32;5.37;;;;;;;7.75;49.20;100921.36;1901780;75;21422;-60
2022/03/09 09:24:57;;;;;;;10.90;6.50;;;;;;;7.75;49.27;100920.05;1898633;75;21498;-60
2022/03/09 09:27:25;;;;;;;14.30;5.58;;;;;;;8.45;48.54;100917.38;1898610;75;21032;-60
2022/03/09 09:29:54;;;;;;;15.13;7.05;;;;;;;8.67;48.48;100918.96;1898683;75;21094;-61
2022/03/09 09:32:22;;;;;;;8.70;5.40;;;;;;;8.58;48.41;100915.28;1898599;75;21035;-61
2022/03/09 09:34:51;;;;;;;12.90;5.33;;;;;;;9.22;46.99;100912.97;1874750;75;21042;-62
2022/03/09 09:37:20;;;;;;;11.60;5.87;;;;;;;9.22;46.30;100911.23;1839819;78;21034;-60
2022/03/09 09:39:48;;;;;;;8.10;4.60;;;;;;;10.11;45.31;100903.53;1864685;75;20999;-60
2022/03/09 09:42:21;;;;;;;8.28;4.25;;;;;;;11.27;44.19;100908.52;1898661;75;21078;-58
2022/03/09 09:44:48;;;;;;;8.28;4.10;;;;;;;12.25;42.71;100904.52;1945601;73;21051;-59
2022/03/09 09:47:17;;;;;;;11.38;5.45;;;;;;;12.97;40.99;100907.52;1945853;74;21434;-60
2022/03/09 09:49:48;;;;;;;8.43;5.28;;;;;;;13.57;40.55;100892.77;1943643;74;21126;-59
2022/03/09 09:52:17;;;;;;;8.00;3.98;;;;;;;14.13;39.42;100893.05;1943513;74;21142;-59
2022/03/09 09:54:47;;;;;;;6.80;4.65;;;;;;;14.47;38.64;100893.92;1943755;74;21454;-58
2022/03/09 09:57:16;;;;;;;12.03;5.95;;;;;;;14.83;37.70;100888.97;1945957;73;21047;-58
2022/03/09 09:59:45;;;;;;;11.08;5.83;;;;;;;14.66;37.99;100886.75;1945817;74;21181;-59
2022/03/09 10:02:14;;;;;;;10.75;4.87;;;;;;;14.64;37.61;100885.98;1945898;74;21359;-58
2022/03/09 10:04:44;;;;;;;9.05;6.10;;;;;;;14.41;37.31;100888.96;1946011;74;21007;-58
2022/03/09 10:07:13;;;;;;;14.58;7.50;;;;;;;13.08;38.36;100894.64;1943644;74;21031;-59
2022/03/09 10:09:42;;;;;;;8.73;3.52;;;;;;;11.90;40.09;100885.77;1945954;74;21059;-58
2022/03/09 10:12:13;;;;;;;10.08;4.95;;;;;;;11.30;41.47;100889.95;1945935;74;21474;-59
2022/03/09 10:14:52;;;;;;;8.70;4.95;;;;;;;10.58;42.10;100892.24;1945978;74;21134;-59
2022/03/09 10:17:18;;;;;;;11.90;6.53;;;;;;;9.91;42.32;100891.05;1942879;74;21016;-58
2022/03/09 10:19:58;;;;;;;9.80;4.70;;;;;;;9.25;42.91;100882.67;1945873;74;21502;-59
2022/03/09 10:22:32;;;;;;;9.78;5.55;;;;;;;8.73;43.36;100894.30;1945827;74;21506;-59
2022/03/09 10:25:13;;;;;;;12.07;5.85;;;;;;;8.31;43.85;100887.54;1940976;73;21247;-59
2022/03/09 10:27:50;;;;;;;19.87;5.95;;;;;;;8.05;44.48;100890.86;1945935;74;21039;-59
2022/03/09 10:30:24;;;;;;;11.08;5.85;;;;;;;7.92;44.93;100888.16;1945881;74;21051;-58
2022/03/09 10:32:59;;;;;;;13.48;5.42;;;;;;;7.81;45.41;100886.27;1944420;73;21560;-59
2022/03/09 10:35:36;;;;;;;9.13;4.85;;;;;;;7.86;45.53;100892.25;1916940;74;21011;-59
2022/03/09 10:38:10;;;;;;;7.05;4.17;;;;;;;8.25;45.16;100898.67;1912347;75;21128;-59
2022/03/09 10:40:45;;;;;;;9.25;4.67;;;;;;;8.63;44.74;100895.45;1931094;74;21007;-59
2022/03/09 10:43:16;;;;;;;10.98;5.87;;;;;;;9.83;43.69;100894.37;1946025;72;21533;-59
2022/03/09 10:46:09;;;;;;;7.90;5.03;;;;;;;10.53;42.34;100882.33;1919233;74;21179;-59
2022/03/09 10:48:57;;;;;;;8.83;4.67;;;;;;;10.48;41.94;100885.15;1912329;75;21125;-58
2022/03/09 10:51:28;;;;;;;13.32;6.12;;;;;;;10.17;41.67;100885.34;1912458;75;21048;-59
2022/03/09 10:53:58;;;;;;;9.68;6.00;;;;;;;9.75;42.25;100888.53;1912301;75;21497;-60
2022/03/09 10:56:26;;;;;;;12.10;5.67;;;;;;;9.38;42.45;100885.78;1936613;74;21097;-59
2022/03/09 10:58:56;;;;;;;8.68;4.97;;;;;;;9.07;42.79;100889.34;1945969;74;21081;-59
2022/03/09 11:01:25;;;;;;;12.50;5.37;;;;;;;8.84;42.93;100890.05;1945991;74;21107;-59
2022/03/09 11:03:54;;;;;;;11.88;6.40;;;;;;;8.67;43.17;100884.83;1945909;74;21489;-58
2022/03/09 11:06:24;;;;;;;10.05;5.33;;;;;;;8.55;43.31;100887.80;1945896;74;21458;-58
2022/03/09 11:08:54;;;;;;;7.10;4.30;;;;;;;8.30;43.32;100888.92;1945891;74;21505;-58
2022/03/09 11:11:23;;;;;;;10.40;5.22;;;;;;;8.09;43.93;100886.41;1920100;74;21105;-59
2022/03/09 11:13:52;;;;;;;14.80;5.80;;;;;;;7.96;44.30;100883.23;1914643;74;21043;-59
2022/03/09 11:16:21;;;;;;;15.13;6.15;;;;;;;7.86;44.71;100881.77;1912287;75;21039;-58
2022/03/09 11:18:51;;;;;;;11.70;6.78;;;;;;;7.64;45.15;100883.61;1912261;75;21477;-58
2022/03/09 11:21:21;;;;;;;11.12;6.70;;;;;;;7.37;45.84;100889.05;1914353;74;21121;-59
2022/03/09 11:23:50;;;;;;;11.57;6.08;;;;;;;7.20;46.23;100893.38;1912423;75;21063;-58
2022/03/09 11:26:22;;;;;;;9.43;5.92;;;;;;;6.93;46.28;100893.10;1912479;75;21411;-58
2022/03/09 11:28:53;;;;;;;7.10;4.53;;;;;;;6.74;46.47;100895.68;1912187;75;21007;-59
2022/03/09 11:31:23;;;;;;;15.15;6.58;;;;;;;6.49;46.78;100890.95;1907409;75;21122;-58
2022/03/09 11:33:56;;;;;;;12.47;6.87;;;;;;;6.34;47.14;100893.84;1912245;75;21083;-59